sensor_id;sensor_type;location;lat;lon;timestamp;temperature;humidity
75170;SHT31;63749;49.186;9.222;2023-02-01T00:01:13;5.61;84.71
75170;SHT31;63749;49.186;9.222;2023-02-01T00:03:39;5.67;84.46
75170;SHT31;63749;49.186;9.222;2023-02-01T00:06:04;5.65;84.51
75170;SHT31;63749;49.186;9.222;2023-02-01T00:08:30;5.67;84.53
75170;SHT31;63749;49.186;9.222;2023-02-01T00:11:04;5.58;84.62
75170;SHT31;63749;49.186;9.222;2023-02-01T00:13:31;5.63;84.61
75170;SHT31;63749;49.186;9.222;2023-02-01T00:16:11;5.71;84.07
75170;SHT31;63749;49.186;9.222;2023-02-01T00:18:38;5.67;84.09
75170;SHT31;63749;49.186;9.222;2023-02-01T00:21:04;5.65;84.08
75170;SHT31;63749;49.186;9.222;2023-02-01T00:23:32;5.77;83.92
75170;SHT31;63749;49.186;9.222;2023-02-01T00:26:00;5.67;84.03
75170;SHT31;63749;49.186;9.222;2023-02-01T00:28:26;5.71;84.10
75170;SHT31;63749;49.186;9.222;2023-02-01T00:30:59;5.73;83.81
75170;SHT31;63749;49.186;9.222;2023-02-01T00:33:25;5.78;83.70
75170;SHT31;63749;49.186;9.222;2023-02-01T00:35:50;5.77;83.83
75170;SHT31;63749;49.186;9.222;2023-02-01T00:38:16;5.84;83.95
75170;SHT31;63749;49.186;9.222;2023-02-01T00:40:41;5.71;84.14
75170;SHT31;63749;49.186;9.222;2023-02-01T00:43:06;5.77;84.07
75170;SHT31;63749;49.186;9.222;2023-02-01T00:45:32;5.71;84.35
75170;SHT31;63749;49.186;9.222;2023-02-01T00:47:57;5.83;84.22
75170;SHT31;63749;49.186;9.222;2023-02-01T00:50:22;5.77;84.14
75170;SHT31;63749;49.186;9.222;2023-02-01T00:52:48;5.77;84.02
75170;SHT31;63749;49.186;9.222;2023-02-01T00:55:13;5.74;84.14
75170;SHT31;63749;49.186;9.222;2023-02-01T00:57:38;5.79;83.78
75170;SHT31;63749;49.186;9.222;2023-02-01T01:00:04;5.78;83.81
75170;SHT31;63749;49.186;9.222;2023-02-01T01:02:30;5.79;83.46
75170;SHT31;63749;49.186;9.222;2023-02-01T01:04:55;5.78;83.86
75170;SHT31;63749;49.186;9.222;2023-02-01T01:07:21;5.78;83.79
75170;SHT31;63749;49.186;9.222;2023-02-01T01:09:46;5.81;83.60
75170;SHT31;63749;49.186;9.222;2023-02-01T01:12:12;5.81;83.67
75170;SHT31;63749;49.186;9.222;2023-02-01T01:14:37;5.83;83.58
75170;SHT31;63749;49.186;9.222;2023-02-01T01:17:02;5.73;83.89
75170;SHT31;63749;49.186;9.222;2023-02-01T01:19:28;5.79;83.57
75170;SHT31;63749;49.186;9.222;2023-02-01T01:21:53;5.88;83.65
75170;SHT31;63749;49.186;9.222;2023-02-01T01:24:18;5.90;83.51
75170;SHT31;63749;49.186;9.222;2023-02-01T01:26:44;5.84;83.35
75170;SHT31;63749;49.186;9.222;2023-02-01T01:29:09;5.87;83.40
75170;SHT31;63749;49.186;9.222;2023-02-01T01:31:36;5.93;83.07
75170;SHT31;63749;49.186;9.222;2023-02-01T01:34:01;5.91;83.29
75170;SHT31;63749;49.186;9.222;2023-02-01T01:36:28;5.91;83.19
75170;SHT31;63749;49.186;9.222;2023-02-01T01:38:53;5.85;83.48
75170;SHT31;63749;49.186;9.222;2023-02-01T01:41:25;5.91;83.50
75170;SHT31;63749;49.186;9.222;2023-02-01T01:46:54;5.83;83.62
75170;SHT31;63749;49.186;9.222;2023-02-01T01:49:22;5.95;83.18
75170;SHT31;63749;49.186;9.222;2023-02-01T01:52:01;5.87;83.30
75170;SHT31;63749;49.186;9.222;2023-02-01T01:54:45;5.91;83.54
75170;SHT31;63749;49.186;9.222;2023-02-01T01:57:14;5.88;83.38
75170;SHT31;63749;49.186;9.222;2023-02-01T01:59:47;5.83;83.61
75170;SHT31;63749;49.186;9.222;2023-02-01T02:02:13;5.85;83.79
75170;SHT31;63749;49.186;9.222;2023-02-01T02:04:38;5.97;83.30
75170;SHT31;63749;49.186;9.222;2023-02-01T02:07:09;5.85;83.84
75170;SHT31;63749;49.186;9.222;2023-02-01T02:09:52;5.83;84.09
75170;SHT31;63749;49.186;9.222;2023-02-01T02:12:17;5.99;83.34
75170;SHT31;63749;49.186;9.222;2023-02-01T02:14:43;6.06;83.21
75170;SHT31;63749;49.186;9.222;2023-02-01T02:20:09;6.09;83.01
75170;SHT31;63749;49.186;9.222;2023-02-01T02:22:44;5.98;83.27
75170;SHT31;63749;49.186;9.222;2023-02-01T02:39:11;5.99;83.24
75170;SHT31;63749;49.186;9.222;2023-02-01T02:47:29;5.93;83.45
75170;SHT31;63749;49.186;9.222;2023-02-01T02:53:18;5.83;83.85
75170;SHT31;63749;49.186;9.222;2023-02-01T02:56:05;5.90;83.54
75170;SHT31;63749;49.186;9.222;2023-02-01T02:58:51;5.87;83.62
75170;SHT31;63749;49.186;9.222;2023-02-01T03:01:37;5.91;83.49
75170;SHT31;63749;49.186;9.222;2023-02-01T03:04:21;5.90;83.16
75170;SHT31;63749;49.186;9.222;2023-02-01T03:06:48;5.99;82.88
75170;SHT31;63749;49.186;9.222;2023-02-01T03:09:31;6.04;82.69
75170;SHT31;63749;49.186;9.222;2023-02-01T03:12:01;6.11;82.34
75170;SHT31;63749;49.186;9.222;2023-02-01T03:14:51;5.99;82.75
75170;SHT31;63749;49.186;9.222;2023-02-01T03:17:22;6.04;82.92
75170;SHT31;63749;49.186;9.222;2023-02-01T03:19:53;6.02;82.82
75170;SHT31;63749;49.186;9.222;2023-02-01T03:22:24;6.05;82.95
75170;SHT31;63749;49.186;9.222;2023-02-01T03:24:58;6.06;83.02
75170;SHT31;63749;49.186;9.222;2023-02-01T03:27:32;6.09;83.12
75170;SHT31;63749;49.186;9.222;2023-02-01T03:32:34;6.08;83.19
75170;SHT31;63749;49.186;9.222;2023-02-01T03:35:26;6.11;82.87
75170;SHT31;63749;49.186;9.222;2023-02-01T03:37:56;6.08;83.11
75170;SHT31;63749;49.186;9.222;2023-02-01T03:40:27;6.11;82.94
75170;SHT31;63749;49.186;9.222;2023-02-01T03:42:55;6.11;82.90
75170;SHT31;63749;49.186;9.222;2023-02-01T03:45:33;6.18;82.75
75170;SHT31;63749;49.186;9.222;2023-02-01T03:48:01;6.12;83.02
75170;SHT31;63749;49.186;9.222;2023-02-01T03:50:28;6.09;82.89
75170;SHT31;63749;49.186;9.222;2023-02-01T03:53:07;6.14;82.82
75170;SHT31;63749;49.186;9.222;2023-02-01T03:55:35;6.15;82.71
75170;SHT31;63749;49.186;9.222;2023-02-01T03:58:07;6.22;82.55
75170;SHT31;63749;49.186;9.222;2023-02-01T04:00:33;6.09;82.82
75170;SHT31;63749;49.186;9.222;2023-02-01T04:02:59;6.16;82.65
75170;SHT31;63749;49.186;9.222;2023-02-01T04:05:24;6.09;82.76
75170;SHT31;63749;49.186;9.222;2023-02-01T04:07:50;6.11;82.64
75170;SHT31;63749;49.186;9.222;2023-02-01T04:10:15;6.09;82.75
75170;SHT31;63749;49.186;9.222;2023-02-01T04:12:41;6.08;82.53
75170;SHT31;63749;49.186;9.222;2023-02-01T04:15:07;6.09;82.52
75170;SHT31;63749;49.186;9.222;2023-02-01T04:17:33;5.98;82.91
75170;SHT31;63749;49.186;9.222;2023-02-01T04:19:58;5.94;83.05
75170;SHT31;63749;49.186;9.222;2023-02-01T04:22:23;5.95;82.80
75170;SHT31;63749;49.186;9.222;2023-02-01T04:24:49;5.98;82.98
75170;SHT31;63749;49.186;9.222;2023-02-01T04:27:14;5.97;82.99
75170;SHT31;63749;49.186;9.222;2023-02-01T04:29:40;5.98;82.89
75170;SHT31;63749;49.186;9.222;2023-02-01T04:32:06;5.99;82.92
75170;SHT31;63749;49.186;9.222;2023-02-01T04:34:31;5.94;83.26
75170;SHT31;63749;49.186;9.222;2023-02-01T04:36:57;5.95;83.12
75170;SHT31;63749;49.186;9.222;2023-02-01T04:39:22;5.98;83.09
75170;SHT31;63749;49.186;9.222;2023-02-01T04:41:47;5.93;83.20
75170;SHT31;63749;49.186;9.222;2023-02-01T04:44:15;5.87;83.31
75170;SHT31;63749;49.186;9.222;2023-02-01T04:46:41;5.93;83.30
75170;SHT31;63749;49.186;9.222;2023-02-01T04:49:08;5.94;83.16
75170;SHT31;63749;49.186;9.222;2023-02-01T04:51:34;5.93;83.12
75170;SHT31;63749;49.186;9.222;2023-02-01T04:53:59;5.91;83.31
75170;SHT31;63749;49.186;9.222;2023-02-01T04:56:25;5.94;83.16
75170;SHT31;63749;49.186;9.222;2023-02-01T04:58:50;6.01;82.84
75170;SHT31;63749;49.186;9.222;2023-02-01T05:01:16;5.95;83.26
75170;SHT31;63749;49.186;9.222;2023-02-01T05:03:41;5.85;83.50
75170;SHT31;63749;49.186;9.222;2023-02-01T05:06:06;5.90;83.21
75170;SHT31;63749;49.186;9.222;2023-02-01T05:08:32;5.95;82.89
75170;SHT31;63749;49.186;9.222;2023-02-01T05:10:58;5.94;83.00
75170;SHT31;63749;49.186;9.222;2023-02-01T05:13:24;5.93;83.16
75170;SHT31;63749;49.186;9.222;2023-02-01T05:16:08;5.83;83.52
75170;SHT31;63749;49.186;9.222;2023-02-01T05:18:33;5.87;83.15
75170;SHT31;63749;49.186;9.222;2023-02-01T05:20:59;5.85;83.14
75170;SHT31;63749;49.186;9.222;2023-02-01T05:23:24;5.87;83.14
75170;SHT31;63749;49.186;9.222;2023-02-01T05:25:49;5.93;82.84
75170;SHT31;63749;49.186;9.222;2023-02-01T05:28:15;5.90;83.05
75170;SHT31;63749;49.186;9.222;2023-02-01T05:30:40;5.88;82.82
75170;SHT31;63749;49.186;9.222;2023-02-01T05:33:05;5.85;82.57
75170;SHT31;63749;49.186;9.222;2023-02-01T05:35:31;5.91;82.40
75170;SHT31;63749;49.186;9.222;2023-02-01T05:37:56;5.90;82.57
75170;SHT31;63749;49.186;9.222;2023-02-01T05:40:21;5.93;82.40
75170;SHT31;63749;49.186;9.222;2023-02-01T05:42:47;5.95;82.69
75170;SHT31;63749;49.186;9.222;2023-02-01T05:45:13;5.95;82.80
75170;SHT31;63749;49.186;9.222;2023-02-01T05:47:38;5.87;82.97
75170;SHT31;63749;49.186;9.222;2023-02-01T05:50:05;5.81;83.34
75170;SHT31;63749;49.186;9.222;2023-02-01T05:52:31;5.88;83.47
75170;SHT31;63749;49.186;9.222;2023-02-01T05:54:56;5.91;83.30
75170;SHT31;63749;49.186;9.222;2023-02-01T05:57:21;5.87;83.38
75170;SHT31;63749;49.186;9.222;2023-02-01T05:59:48;5.87;83.36
75170;SHT31;63749;49.186;9.222;2023-02-01T06:02:17;5.93;83.32
75170;SHT31;63749;49.186;9.222;2023-02-01T06:04:43;5.88;83.58
75170;SHT31;63749;49.186;9.222;2023-02-01T06:07:09;5.88;83.46
75170;SHT31;63749;49.186;9.222;2023-02-01T06:09:36;5.81;83.67
75170;SHT31;63749;49.186;9.222;2023-02-01T06:12:04;5.84;83.33
75170;SHT31;63749;49.186;9.222;2023-02-01T06:14:29;5.77;83.74
75170;SHT31;63749;49.186;9.222;2023-02-01T06:16:55;5.77;83.64
75170;SHT31;63749;49.186;9.222;2023-02-01T06:19:21;5.65;84.30
75170;SHT31;63749;49.186;9.222;2023-02-01T06:21:47;5.65;84.87
75170;SHT31;63749;49.186;9.222;2023-02-01T06:24:13;5.67;85.56
75170;SHT31;63749;49.186;9.222;2023-02-01T06:26:38;5.60;86.25
75170;SHT31;63749;49.186;9.222;2023-02-01T06:29:05;5.57;86.78
75170;SHT31;63749;49.186;9.222;2023-02-01T06:31:31;5.42;87.36
75170;SHT31;63749;49.186;9.222;2023-02-01T06:33:57;5.43;87.27
75170;SHT31;63749;49.186;9.222;2023-02-01T06:36:22;5.39;87.67
75170;SHT31;63749;49.186;9.222;2023-02-01T06:38:48;5.46;87.49
75170;SHT31;63749;49.186;9.222;2023-02-01T06:41:14;5.43;87.44
75170;SHT31;63749;49.186;9.222;2023-02-01T06:43:39;5.50;87.29
75170;SHT31;63749;49.186;9.222;2023-02-01T06:46:07;5.56;86.75
75170;SHT31;63749;49.186;9.222;2023-02-01T06:48:33;5.54;86.99
75170;SHT31;63749;49.186;9.222;2023-02-01T06:50:59;5.56;86.88
75170;SHT31;63749;49.186;9.222;2023-02-01T06:53:24;5.61;86.49
75170;SHT31;63749;49.186;9.222;2023-02-01T06:55:54;5.56;86.47
75170;SHT31;63749;49.186;9.222;2023-02-01T06:58:20;5.60;86.56
75170;SHT31;63749;49.186;9.222;2023-02-01T07:00:45;5.64;86.21
75170;SHT31;63749;49.186;9.222;2023-02-01T07:03:11;5.71;85.93
75170;SHT31;63749;49.186;9.222;2023-02-01T07:05:36;5.63;86.11
75170;SHT31;63749;49.186;9.222;2023-02-01T07:08:01;5.64;86.10
75170;SHT31;63749;49.186;9.222;2023-02-01T07:10:26;5.70;86.15
75170;SHT31;63749;49.186;9.222;2023-02-01T07:12:52;5.74;85.75
75170;SHT31;63749;49.186;9.222;2023-02-01T07:15:17;5.77;85.51
75170;SHT31;63749;49.186;9.222;2023-02-01T07:17:43;5.79;85.87
75170;SHT31;63749;49.186;9.222;2023-02-01T07:20:10;5.79;85.27
75170;SHT31;63749;49.186;9.222;2023-02-01T07:22:37;5.79;85.07
75170;SHT31;63749;49.186;9.222;2023-02-01T07:25:02;5.83;84.55
75170;SHT31;63749;49.186;9.222;2023-02-01T07:27:27;5.78;84.85
75170;SHT31;63749;49.186;9.222;2023-02-01T07:29:53;5.78;84.94
75170;SHT31;63749;49.186;9.222;2023-02-01T07:32:20;5.77;85.02
75170;SHT31;63749;49.186;9.222;2023-02-01T07:34:45;5.83;84.67
75170;SHT31;63749;49.186;9.222;2023-02-01T07:37:11;5.85;84.65
75170;SHT31;63749;49.186;9.222;2023-02-01T07:39:36;5.84;84.51
75170;SHT31;63749;49.186;9.222;2023-02-01T07:42:01;5.78;84.75
75170;SHT31;63749;49.186;9.222;2023-02-01T07:44:27;5.78;84.31
75170;SHT31;63749;49.186;9.222;2023-02-01T07:46:52;5.70;84.38
75170;SHT31;63749;49.186;9.222;2023-02-01T07:49:18;5.68;83.91
75170;SHT31;63749;49.186;9.222;2023-02-01T07:51:43;5.64;83.76
75170;SHT31;63749;49.186;9.222;2023-02-01T07:54:09;5.58;83.93
75170;SHT31;63749;49.186;9.222;2023-02-01T07:56:34;5.65;84.00
75170;SHT31;63749;49.186;9.222;2023-02-01T07:59:00;5.56;84.43
75170;SHT31;63749;49.186;9.222;2023-02-01T08:01:28;5.64;84.42
75170;SHT31;63749;49.186;9.222;2023-02-01T08:03:58;5.60;84.82
75170;SHT31;63749;49.186;9.222;2023-02-01T08:06:25;5.68;84.83
75170;SHT31;63749;49.186;9.222;2023-02-01T08:08:51;5.65;85.05
75170;SHT31;63749;49.186;9.222;2023-02-01T08:11:18;5.70;85.07
75170;SHT31;63749;49.186;9.222;2023-02-01T08:13:44;5.73;84.82
75170;SHT31;63749;49.186;9.222;2023-02-01T08:16:10;5.73;85.13
75170;SHT31;63749;49.186;9.222;2023-02-01T08:18:37;5.75;85.13
75170;SHT31;63749;49.186;9.222;2023-02-01T08:21:07;5.88;85.21
75170;SHT31;63749;49.186;9.222;2023-02-01T08:23:34;5.93;84.81
75170;SHT31;63749;49.186;9.222;2023-02-01T08:26:09;6.04;84.85
75170;SHT31;63749;49.186;9.222;2023-02-01T08:28:35;6.12;84.19
75170;SHT31;63749;49.186;9.222;2023-02-01T08:31:04;6.11;84.36
75170;SHT31;63749;49.186;9.222;2023-02-01T08:33:30;6.19;84.32
75170;SHT31;63749;49.186;9.222;2023-02-01T08:35:55;6.25;84.20
75170;SHT31;63749;49.186;9.222;2023-02-01T08:38:21;6.19;85.92
75170;SHT31;63749;49.186;9.222;2023-02-01T08:40:46;5.98;87.26
75170;SHT31;63749;49.186;9.222;2023-02-01T08:43:11;5.84;88.23
75170;SHT31;63749;49.186;9.222;2023-02-01T08:45:37;5.65;89.69
75170;SHT31;63749;49.186;9.222;2023-02-01T08:48:02;5.56;90.77
75170;SHT31;63749;49.186;9.222;2023-02-01T08:50:27;5.50;90.71
75170;SHT31;63749;49.186;9.222;2023-02-01T08:52:53;5.51;90.48
75170;SHT31;63749;49.186;9.222;2023-02-01T08:55:19;5.51;90.25
75170;SHT31;63749;49.186;9.222;2023-02-01T08:57:44;5.48;90.16
75170;SHT31;63749;49.186;9.222;2023-02-01T09:00:13;5.56;90.08
75170;SHT31;63749;49.186;9.222;2023-02-01T09:02:38;5.57;90.06
75170;SHT31;63749;49.186;9.222;2023-02-01T09:05:04;5.60;90.06
75170;SHT31;63749;49.186;9.222;2023-02-01T09:07:30;5.63;89.66
75170;SHT31;63749;49.186;9.222;2023-02-01T09:09:55;5.78;89.03
75170;SHT31;63749;49.186;9.222;2023-02-01T09:12:22;5.97;88.13
75170;SHT31;63749;49.186;9.222;2023-02-01T09:14:47;6.01;87.27
75170;SHT31;63749;49.186;9.222;2023-02-01T09:17:12;6.12;87.33
75170;SHT31;63749;49.186;9.222;2023-02-01T09:19:39;6.16;86.46
75170;SHT31;63749;49.186;9.222;2023-02-01T09:22:05;6.24;86.12
75170;SHT31;63749;49.186;9.222;2023-02-01T09:24:30;6.25;85.60
75170;SHT31;63749;49.186;9.222;2023-02-01T09:26:56;6.35;85.14
75170;SHT31;63749;49.186;9.222;2023-02-01T09:29:21;6.37;85.14
75170;SHT31;63749;49.186;9.222;2023-02-01T09:31:47;6.42;84.58
75170;SHT31;63749;49.186;9.222;2023-02-01T09:34:12;6.43;84.46
75170;SHT31;63749;49.186;9.222;2023-02-01T09:36:37;6.49;85.03
75170;SHT31;63749;49.186;9.222;2023-02-01T09:39:03;6.52;83.82
75170;SHT31;63749;49.186;9.222;2023-02-01T09:47:23;6.52;83.57
75170;SHT31;63749;49.186;9.222;2023-02-01T09:49:58;6.49;83.52
75170;SHT31;63749;49.186;9.222;2023-02-01T09:52:36;6.56;83.57
75170;SHT31;63749;49.186;9.222;2023-02-01T09:55:09;6.53;83.69
75170;SHT31;63749;49.186;9.222;2023-02-01T09:58:07;6.57;83.64
75170;SHT31;63749;49.186;9.222;2023-02-01T10:00:35;6.64;83.33
75170;SHT31;63749;49.186;9.222;2023-02-01T10:03:02;6.74;82.86
75170;SHT31;63749;49.186;9.222;2023-02-01T10:06:29;6.73;82.39
75170;SHT31;63749;49.186;9.222;2023-02-01T10:08:59;6.70;82.51
75170;SHT31;63749;49.186;9.222;2023-02-01T10:17:04;6.66;82.91
75170;SHT31;63749;49.186;9.222;2023-02-01T10:19:55;6.52;84.99
75170;SHT31;63749;49.186;9.222;2023-02-01T10:22:46;6.46;84.18
75170;SHT31;63749;49.186;9.222;2023-02-01T10:25:46;6.40;83.08
75170;SHT31;63749;49.186;9.222;2023-02-01T10:28:17;6.45;83.98
75170;SHT31;63749;49.186;9.222;2023-02-01T10:30:45;6.57;84.05
75170;SHT31;63749;49.186;9.222;2023-02-01T10:33:44;6.64;81.94
75170;SHT31;63749;49.186;9.222;2023-02-01T10:38:54;6.84;80.14
75170;SHT31;63749;49.186;9.222;2023-02-01T10:41:21;6.93;79.54
75170;SHT31;63749;49.186;9.222;2023-02-01T10:43:58;7.16;79.67
75170;SHT31;63749;49.186;9.222;2023-02-01T10:46:24;7.21;79.15
75170;SHT31;63749;49.186;9.222;2023-02-01T10:48:52;7.25;78.23
75170;SHT31;63749;49.186;9.222;2023-02-01T10:51:24;7.34;77.43
75170;SHT31;63749;49.186;9.222;2023-02-01T10:54:03;7.42;77.29
75170;SHT31;63749;49.186;9.222;2023-02-01T10:56:37;7.45;76.58
75170;SHT31;63749;49.186;9.222;2023-02-01T10:59:05;7.58;76.52
75170;SHT31;63749;49.186;9.222;2023-02-01T11:01:34;7.63;75.88
75170;SHT31;63749;49.186;9.222;2023-02-01T11:04:03;7.62;75.45
75170;SHT31;63749;49.186;9.222;2023-02-01T11:06:40;7.59;75.89
75170;SHT31;63749;49.186;9.222;2023-02-01T11:11:31;7.43;76.75
75170;SHT31;63749;49.186;9.222;2023-02-01T11:14:02;7.35;77.16
75170;SHT31;63749;49.186;9.222;2023-02-01T11:16:38;7.32;77.64
75170;SHT31;63749;49.186;9.222;2023-02-01T11:19:05;7.41;78.08
75170;SHT31;63749;49.186;9.222;2023-02-01T11:21:31;7.48;76.95
75170;SHT31;63749;49.186;9.222;2023-02-01T11:24:04;7.41;76.80
75170;SHT31;63749;49.186;9.222;2023-02-01T11:26:30;7.39;76.77
75170;SHT31;63749;49.186;9.222;2023-02-01T11:29:08;7.38;77.06
75170;SHT31;63749;49.186;9.222;2023-02-01T11:31:35;7.46;76.41
75170;SHT31;63749;49.186;9.222;2023-02-01T11:34:12;7.53;75.43
75170;SHT31;63749;49.186;9.222;2023-02-01T11:36:39;7.45;75.30
75170;SHT31;63749;49.186;9.222;2023-02-01T11:39:28;7.41;75.18
75170;SHT31;63749;49.186;9.222;2023-02-01T11:41:58;7.46;75.21
75170;SHT31;63749;49.186;9.222;2023-02-01T11:47:21;7.12;76.57
75170;SHT31;63749;49.186;9.222;2023-02-01T11:49:47;7.16;77.39
75170;SHT31;63749;49.186;9.222;2023-02-01T11:58:06;6.94;78.29
75170;SHT31;63749;49.186;9.222;2023-02-01T12:01:03;6.74;78.85
75170;SHT31;63749;49.186;9.222;2023-02-01T12:03:38;6.70;79.78
75170;SHT31;63749;49.186;9.222;2023-02-01T12:11:58;6.93;78.61
75170;SHT31;63749;49.186;9.222;2023-02-01T12:36:50;7.34;75.01
75170;SHT31;63749;49.186;9.222;2023-02-01T12:39:22;7.36;75.02
75170;SHT31;63749;49.186;9.222;2023-02-01T12:42:00;7.45;74.85
75170;SHT31;63749;49.186;9.222;2023-02-01T12:44:37;7.43;74.76
75170;SHT31;63749;49.186;9.222;2023-02-01T12:47:09;7.45;74.69
75170;SHT31;63749;49.186;9.222;2023-02-01T12:50:03;7.41;74.78
75170;SHT31;63749;49.186;9.222;2023-02-01T12:52:40;7.42;73.84
75170;SHT31;63749;49.186;9.222;2023-02-01T12:57:46;7.41;74.80
75170;SHT31;63749;49.186;9.222;2023-02-01T13:02:54;7.39;75.09
75170;SHT31;63749;49.186;9.222;2023-02-01T13:05:44;7.31;74.43
75170;SHT31;63749;49.186;9.222;2023-02-01T13:08:14;7.43;74.10
75170;SHT31;63749;49.186;9.222;2023-02-01T13:10:58;7.51;73.77
75170;SHT31;63749;49.186;9.222;2023-02-01T13:13:32;7.48;73.89
75170;SHT31;63749;49.186;9.222;2023-02-01T13:16:15;7.61;72.32
75170;SHT31;63749;49.186;9.222;2023-02-01T13:18:46;7.73;71.51
75170;SHT31;63749;49.186;9.222;2023-02-01T13:21:17;7.86;71.54
75170;SHT31;63749;49.186;9.222;2023-02-01T13:23:45;8.01;70.54
75170;SHT31;63749;49.186;9.222;2023-02-01T13:26:11;7.90;71.00
75170;SHT31;63749;49.186;9.222;2023-02-01T13:28:45;7.84;70.63
75170;SHT31;63749;49.186;9.222;2023-02-01T13:39:55;7.94;71.00
75170;SHT31;63749;49.186;9.222;2023-02-01T13:42:27;7.90;71.55
75170;SHT31;63749;49.186;9.222;2023-02-01T13:44:59;7.86;71.61
75170;SHT31;63749;49.186;9.222;2023-02-01T13:47:32;7.86;71.45
75170;SHT31;63749;49.186;9.222;2023-02-01T13:50:03;7.83;71.11
75170;SHT31;63749;49.186;9.222;2023-02-01T13:52:40;7.86;70.30
75170;SHT31;63749;49.186;9.222;2023-02-01T13:57:41;7.90;71.35
75170;SHT31;63749;49.186;9.222;2023-02-01T14:05:11;7.83;71.78
75170;SHT31;63749;49.186;9.222;2023-02-01T14:10:51;7.79;72.83
75170;SHT31;63749;49.186;9.222;2023-02-01T14:26:44;7.45;74.46
75170;SHT31;63749;49.186;9.222;2023-02-01T14:39:30;7.46;72.91
75170;SHT31;63749;49.186;9.222;2023-02-01T14:41:59;7.49;73.28
75170;SHT31;63749;49.186;9.222;2023-02-01T14:44:28;7.41;73.14
75170;SHT31;63749;49.186;9.222;2023-02-01T14:49:47;7.32;72.78
75170;SHT31;63749;49.186;9.222;2023-02-01T14:52:17;7.34;72.88
75170;SHT31;63749;49.186;9.222;2023-02-01T14:54:49;7.41;72.76
75170;SHT31;63749;49.186;9.222;2023-02-01T14:57:19;7.39;72.98
75170;SHT31;63749;49.186;9.222;2023-02-01T14:59:46;7.36;73.17
75170;SHT31;63749;49.186;9.222;2023-02-01T15:02:21;7.24;73.81
75170;SHT31;63749;49.186;9.222;2023-02-01T15:04:54;7.26;73.67
75170;SHT31;63749;49.186;9.222;2023-02-01T15:07:21;7.22;73.60
75170;SHT31;63749;49.186;9.222;2023-02-01T15:09:48;7.18;73.68
75170;SHT31;63749;49.186;9.222;2023-02-01T15:12:31;7.18;74.14
75170;SHT31;63749;49.186;9.222;2023-02-01T15:17:36;7.12;73.69
75170;SHT31;63749;49.186;9.222;2023-02-01T15:20:13;7.12;73.91
75170;SHT31;63749;49.186;9.222;2023-02-01T15:22:39;7.14;73.31
75170;SHT31;63749;49.186;9.222;2023-02-01T15:25:05;7.01;74.17
75170;SHT31;63749;49.186;9.222;2023-02-01T15:27:32;7.05;73.61
75170;SHT31;63749;49.186;9.222;2023-02-01T15:30:08;7.09;73.54
75170;SHT31;63749;49.186;9.222;2023-02-01T15:32:39;7.09;73.22
75170;SHT31;63749;49.186;9.222;2023-02-01T15:35:30;7.05;73.23
75170;SHT31;63749;49.186;9.222;2023-02-01T15:37:51;7.03;73.77
75170;SHT31;63749;49.186;9.222;2023-02-01T15:40:20;7.00;73.93
75170;SHT31;63749;49.186;9.222;2023-02-01T15:42:58;7.00;73.58
75170;SHT31;63749;49.186;9.222;2023-02-01T15:45:31;7.09;73.28
75170;SHT31;63749;49.186;9.222;2023-02-01T15:47:58;7.01;73.92
75170;SHT31;63749;49.186;9.222;2023-02-01T15:50:24;6.95;74.24
75170;SHT31;63749;49.186;9.222;2023-02-01T15:52:53;6.93;74.25
75170;SHT31;63749;49.186;9.222;2023-02-01T15:55:30;6.87;74.79
75170;SHT31;63749;49.186;9.222;2023-02-01T15:57:58;6.87;75.07
75170;SHT31;63749;49.186;9.222;2023-02-01T16:00:33;6.79;75.29
75170;SHT31;63749;49.186;9.222;2023-02-01T16:03:03;6.79;74.68
75170;SHT31;63749;49.186;9.222;2023-02-01T16:05:38;6.80;74.59
75170;SHT31;63749;49.186;9.222;2023-02-01T16:08:13;6.80;74.45
75170;SHT31;63749;49.186;9.222;2023-02-01T16:10:42;6.76;74.55
75170;SHT31;63749;49.186;9.222;2023-02-01T16:13:08;6.72;74.63
75170;SHT31;63749;49.186;9.222;2023-02-01T16:15:34;6.63;75.20
75170;SHT31;63749;49.186;9.222;2023-02-01T16:17:59;6.57;75.42
75170;SHT31;63749;49.186;9.222;2023-02-01T16:20:24;6.64;75.18
75170;SHT31;63749;49.186;9.222;2023-02-01T16:22:50;6.63;75.41
75170;SHT31;63749;49.186;9.222;2023-02-01T16:25:15;6.64;75.60
75170;SHT31;63749;49.186;9.222;2023-02-01T16:27:41;6.57;75.84
75170;SHT31;63749;49.186;9.222;2023-02-01T16:30:07;6.66;75.51
75170;SHT31;63749;49.186;9.222;2023-02-01T16:32:35;6.69;75.67
75170;SHT31;63749;49.186;9.222;2023-02-01T16:35:11;6.67;75.57
75170;SHT31;63749;49.186;9.222;2023-02-01T16:37:38;6.70;75.31
75170;SHT31;63749;49.186;9.222;2023-02-01T16:40:04;6.63;75.65
75170;SHT31;63749;49.186;9.222;2023-02-01T16:42:29;6.62;75.87
75170;SHT31;63749;49.186;9.222;2023-02-01T16:44:55;6.63;75.75
75170;SHT31;63749;49.186;9.222;2023-02-01T16:47:24;6.77;74.76
75170;SHT31;63749;49.186;9.222;2023-02-01T16:49:50;6.73;75.12
75170;SHT31;63749;49.186;9.222;2023-02-01T16:52:21;6.73;75.13
75170;SHT31;63749;49.186;9.222;2023-02-01T16:54:48;6.76;75.21
75170;SHT31;63749;49.186;9.222;2023-02-01T16:57:16;6.72;75.17
75170;SHT31;63749;49.186;9.222;2023-02-01T16:59:42;6.77;75.08
75170;SHT31;63749;49.186;9.222;2023-02-01T17:02:13;6.76;75.08
75170;SHT31;63749;49.186;9.222;2023-02-01T17:04:39;6.80;74.88
75170;SHT31;63749;49.186;9.222;2023-02-01T17:07:04;6.79;75.05
75170;SHT31;63749;49.186;9.222;2023-02-01T17:09:37;6.81;75.06
75170;SHT31;63749;49.186;9.222;2023-02-01T17:12:04;6.83;74.85
75170;SHT31;63749;49.186;9.222;2023-02-01T17:14:34;6.80;74.96
75170;SHT31;63749;49.186;9.222;2023-02-01T17:17:04;6.81;74.55
75170;SHT31;63749;49.186;9.222;2023-02-01T17:19:29;6.80;74.83
75170;SHT31;63749;49.186;9.222;2023-02-01T17:21:55;6.79;74.83
75170;SHT31;63749;49.186;9.222;2023-02-01T17:24:26;6.77;75.09
75170;SHT31;63749;49.186;9.222;2023-02-01T17:26:51;6.83;74.69
75170;SHT31;63749;49.186;9.222;2023-02-01T17:29:18;6.81;74.78
75170;SHT31;63749;49.186;9.222;2023-02-01T17:31:45;6.88;74.25
75170;SHT31;63749;49.186;9.222;2023-02-01T17:34:12;6.91;74.36
75170;SHT31;63749;49.186;9.222;2023-02-01T17:36:45;6.93;74.31
75170;SHT31;63749;49.186;9.222;2023-02-01T17:39:11;6.95;74.02
75170;SHT31;63749;49.186;9.222;2023-02-01T17:42:32;6.90;74.31
75170;SHT31;63749;49.186;9.222;2023-02-01T17:47:42;6.84;74.63
75170;SHT31;63749;49.186;9.222;2023-02-01T17:50:08;6.85;74.39
75170;SHT31;63749;49.186;9.222;2023-02-01T17:52:33;6.87;74.45
75170;SHT31;63749;49.186;9.222;2023-02-01T17:55:00;6.83;73.98
75170;SHT31;63749;49.186;9.222;2023-02-01T17:57:27;6.84;74.30
75170;SHT31;63749;49.186;9.222;2023-02-01T17:59:53;6.77;74.59
75170;SHT31;63749;49.186;9.222;2023-02-01T18:02:20;6.76;74.49
75170;SHT31;63749;49.186;9.222;2023-02-01T18:04:46;6.72;75.02
75170;SHT31;63749;49.186;9.222;2023-02-01T18:07:11;6.79;74.30
75170;SHT31;63749;49.186;9.222;2023-02-01T18:09:37;6.79;74.53
75170;SHT31;63749;49.186;9.222;2023-02-01T18:12:05;6.74;74.43
75170;SHT31;63749;49.186;9.222;2023-02-01T18:14:31;6.83;74.11
75170;SHT31;63749;49.186;9.222;2023-02-01T18:16:57;6.77;74.12
75170;SHT31;63749;49.186;9.222;2023-02-01T18:19:23;6.77;74.27